Time;durP1;ratioP1;P1;durP2;ratioP2;P2;SDS_P1;SDS_P2;PMS_P1;PMS_P2;Temp;Humidity;BMP_temperature;BMP_pressure;BME280_temperature;BME280_humidity;BME280_pressure;Samples;Min_cycle;Max_cycle;Signal;HPM_P1;HPM_P2
2021/05/19 00:00:18;;;;;;;2.83;1.70;;;;;;;9.68;71.03;98766.00;5092009;28;41785;-75
2021/05/19 00:02:45;;;;;;;1.77;1.67;;;;;;;9.70;71.70;98778.19;5108399;28;42805;-76
2021/05/19 00:05:14;;;;;;;3.10;1.77;;;;;;;9.70;71.59;98780.84;5109958;27;39677;-75
2021/05/19 00:07:41;;;;;;;2.97;2.13;;;;;;;9.57;71.92;98763.16;5108366;28;41437;-76
2021/05/19 00:10:09;;;;;;;2.00;1.80;;;;;;;9.62;72.14;98769.03;5108210;28;42949;-75
2021/05/19 00:12:37;;;;;;;2.00;1.90;;;;;;;9.60;72.20;98771.78;5091051;28;41685;-75
2021/05/19 00:15:07;;;;;;;2.00;1.90;;;;;;;9.61;72.27;98778.75;5107951;28;38653;-75
2021/05/19 00:17:40;;;;;;;1.60;1.50;;;;;;;9.60;72.31;98782.34;5108644;28;41524;-75
2021/05/19 00:20:09;;;;;;;2.27;2.07;;;;;;;9.60;72.68;98779.69;5108356;28;42611;-76
2021/05/19 00:22:37;;;;;;;2.10;2.00;;;;;;;9.54;72.79;98780.06;5108213;28;42153;-75
2021/05/19 00:25:05;;;;;;;2.10;1.87;;;;;;;9.50;73.15;98770.63;5109327;27;41032;-75
2021/05/19 00:27:32;;;;;;;1.90;1.80;;;;;;;9.59;73.53;98769.22;5141857;27;42349;-75
2021/05/19 00:30:02;;;;;;;2.30;2.10;;;;;;;9.58;73.50;98781.56;5107859;28;42299;-75
2021/05/19 00:32:29;;;;;;;2.00;1.80;;;;;;;9.58;73.77;98783.38;5108042;28;41979;-75
2021/05/19 00:34:57;;;;;;;3.17;2.03;;;;;;;9.57;73.81;98781.66;5091034;28;39182;-75
2021/05/19 00:37:24;;;;;;;2.97;1.97;;;;;;;9.58;73.70;98791.31;5096490;28;42049;-75
2021/05/19 00:39:52;;;;;;;2.00;1.90;;;;;;;9.56;74.02;98794.03;5091586;28;42035;-77
2021/05/19 00:42:19;;;;;;;2.50;2.30;;;;;;;9.54;73.86;98793.28;5107381;28;42963;-75
2021/05/19 00:44:47;;;;;;;2.30;2.10;;;;;;;9.28;73.58;98762.22;5108518;28;39937;-75
2021/05/19 00:47:29;;;;;;;2.80;2.60;;;;;;;9.51;73.82;98796.13;5106973;28;41692;-75
2021/05/19 00:49:57;;;;;;;2.60;2.40;;;;;;;9.42;73.70;98785.22;5107752;28;43481;-75
2021/05/19 00:52:25;;;;;;;2.37;2.00;;;;;;;9.49;73.48;98803.28;5107161;28;41932;-75
2021/05/19 00:54:54;;;;;;;1.80;1.70;;;;;;;9.45;73.27;98796.47;5090743;28;38922;-75
2021/05/19 00:57:21;;;;;;;2.80;2.60;;;;;;;9.47;73.69;98801.66;5107192;28;41927;-75
2021/05/19 00:59:50;;;;;;;3.10;2.40;;;;;;;9.45;73.83;98800.91;5107472;28;42713;-76
2021/05/19 01:02:21;;;;;;;2.90;2.67;;;;;;;9.43;73.44;98803.63;5091431;28;42291;-76
2021/05/19 01:04:49;;;;;;;2.30;2.10;;;;;;;9.39;73.87;98801.28;5107110;28;39351;-76
2021/05/19 01:10:31;;;;;;;3.20;2.90;;;;;;;9.30;73.52;98800.00;5073772;27;42890;-75
2021/05/19 01:12:58;;;;;;;3.33;2.20;;;;;;;9.29;73.08;98795.66;5090578;28;41284;-74
2021/05/19 01:15:25;;;;;;;2.30;2.10;;;;;;;9.22;73.31;98794.31;5106957;28;40333;-75
2021/05/19 01:17:55;;;;;;;4.33;2.57;;;;;;;9.21;73.21;98798.75;5107294;28;40894;-75
2021/05/19 01:20:22;;;;;;;2.63;2.43;;;;;;;9.16;72.83;98794.66;5107635;28;43469;-75
2021/05/19 01:22:50;;;;;;;2.50;2.30;;;;;;;9.15;73.17;98803.53;5107064;28;42170;-76
2021/05/19 01:25:17;;;;;;;3.10;2.80;;;;;;;9.12;73.01;98803.72;5108359;27;39553;-75
2021/05/19 01:27:51;;;;;;;2.50;2.30;;;;;;;9.09;73.16;98798.59;5107574;28;42059;-74
2021/05/19 01:30:19;;;;;;;2.27;2.07;;;;;;;9.05;72.75;98791.78;5107383;28;43540;-76
2021/05/19 01:32:46;;;;;;;2.17;2.07;;;;;;;9.02;72.77;98799.91;5107467;28;40929;-74
2021/05/19 01:35:15;;;;;;;2.27;2.07;;;;;;;8.85;72.76;98779.72;5107019;28;39962;-75
2021/05/19 01:37:44;;;;;;;2.63;2.43;;;;;;;8.86;72.48;98792.84;5108476;28;41520;-75
2021/05/19 01:40:16;;;;;;;1.93;1.83;;;;;;;8.91;72.67;98801.34;5110888;28;43077;-76
2021/05/19 01:42:46;;;;;;;2.80;2.60;;;;;;;8.87;73.10;98798.97;5110953;28;43010;-75
2021/05/19 01:45:24;;;;;;;4.10;2.70;;;;;;;8.85;72.78;98809.63;5093922;28;39827;-76
2021/05/19 01:47:54;;;;;;;3.30;3.00;;;;;;;8.82;73.19;98806.28;5110565;28;42158;-76
2021/05/19 01:50:24;;;;;;;2.97;2.47;;;;;;;8.78;72.91;98810.88;5110678;28;42409;-75
2021/05/19 01:52:53;;;;;;;2.70;2.50;;;;;;;8.74;72.62;98804.09;5110149;28;42899;-77
2021/05/19 01:55:23;;;;;;;3.10;2.43;;;;;;;8.73;72.61;98804.19;5109585;28;40075;-76
2021/05/19 01:57:52;;;;;;;3.30;3.00;;;;;;;8.64;72.46;98795.00;5144222;27;41739;-77
2021/05/19 02:00:22;;;;;;;3.83;2.73;;;;;;;8.54;72.79;98783.22;5110222;28;43428;-75
2021/05/19 02:02:55;;;;;;;2.40;2.20;;;;;;;8.62;72.55;98799.50;5109930;28;41951;-75
2021/05/19 02:05:25;;;;;;;3.37;3.07;;;;;;;8.57;72.61;98796.25;5127839;27;39388;-74
2021/05/19 02:07:54;;;;;;;4.40;3.63;;;;;;;8.55;72.74;98798.97;5110247;28;42402;-75
2021/05/19 02:10:24;;;;;;;4.90;2.90;;;;;;;8.52;73.21;98793.03;5093515;28;41661;-75
2021/05/19 02:12:53;;;;;;;3.13;2.87;;;;;;;8.49;73.54;98796.69;5093356;28;42444;-76
2021/05/19 02:15:21;;;;;;;3.60;3.30;;;;;;;8.48;73.29;98796.75;5109974;28;40353;-74
2021/05/19 02:17:50;;;;;;;3.43;3.00;;;;;;;8.48;73.18;98802.03;5143859;27;41739;-75
2021/05/19 02:20:21;;;;;;;3.53;3.20;;;;;;;8.45;73.25;98802.19;5110074;28;42769;-76
2021/05/19 02:22:49;;;;;;;3.00;2.73;;;;;;;8.37;73.04;98796.50;5092265;28;41430;-78
2021/05/19 02:25:18;;;;;;;3.00;2.80;;;;;;;8.40;73.33;98805.13;5110272;28;39373;-76
2021/05/19 02:27:48;;;;;;;3.03;2.80;;;;;;;8.38;73.07;98803.47;5143917;27;42214;-75
2021/05/19 02:30:21;;;;;;;2.77;2.30;;;;;;;8.37;73.04;98804.41;5109687;28;42432;-74
2021/05/19 02:32:49;;;;;;;3.70;3.40;;;;;;;8.35;73.34;98819.47;5110361;28;41897;-78
2021/05/19 02:35:19;;;;;;;3.70;3.37;;;;;;;8.32;73.30;98817.84;5093188;28;38845;-75
2021/05/19 02:37:52;;;;;;;3.67;3.37;;;;;;;8.23;73.51;98808.63;5093479;28;40759;-74
2021/05/19 02:40:19;;;;;;;3.37;2.80;;;;;;;8.24;73.42;98815.59;5109816;28;42726;-75
2021/05/19 02:42:47;;;;;;;3.70;3.37;;;;;;;8.08;73.49;98792.75;5110355;28;42178;-74
2021/05/19 02:45:20;;;;;;;4.37;3.97;;;;;;;8.20;73.55;98814.06;5092463;28;39013;-75
2021/05/19 02:47:47;;;;;;;4.20;3.80;;;;;;;8.16;73.99;98812.50;5110388;28;40887;-76
2021/05/19 02:50:16;;;;;;;3.70;3.40;;;;;;;8.16;73.73;98814.31;5109494;27;42795;-75
2021/05/19 02:52:44;;;;;;;3.77;3.47;;;;;;;8.14;73.94;98809.13;5109548;28;41739;-76
2021/05/19 02:55:11;;;;;;;6.63;4.50;;;;;;;8.11;73.92;98809.28;5108763;28;40495;-75
2021/05/19 02:57:39;;;;;;;3.70;3.37;;;;;;;8.12;73.99;98808.34;5109165;28;41545;-75
2021/05/19 03:00:09;;;;;;;3.87;3.53;;;;;;;8.09;74.05;98811.13;5108913;28;42382;-75
2021/05/19 03:02:36;;;;;;;5.80;5.20;;;;;;;8.09;74.88;98811.13;5109020;28;42112;-74
2021/05/19 03:05:05;;;;;;;5.13;4.73;;;;;;;8.07;75.72;98813.00;5110525;27;20234;-75
2021/05/19 03:07:33;;;;;;;4.83;4.37;;;;;;;8.06;75.26;98816.56;5109375;28;40314;-75
2021/05/19 03:10:00;;;;;;;4.70;4.30;;;;;;;8.05;75.11;98825.41;5110293;27;43474;-75
2021/05/19 03:12:27;;;;;;;6.47;5.93;;;;;;;8.04;75.05;98823.69;5109515;28;42159;-75
2021/05/19 03:14:55;;;;;;;6.07;5.57;;;;;;;8.02;75.37;98820.31;5091901;28;40221;-76
2021/05/19 03:17:23;;;;;;;5.10;4.70;;;;;;;7.96;75.07;98815.34;5108655;28;42323;-75
2021/05/19 03:19:51;;;;;;;5.07;4.57;;;;;;;8.02;74.98;98822.97;5109245;27;42318;-75
2021/05/19 03:22:18;;;;;;;5.57;5.07;;;;;;;8.00;74.93;98823.97;5110279;27;42279;-74
2021/05/19 03:24:45;;;;;;;4.43;4.03;;;;;;;7.93;75.81;98826.06;5109756;27;39831;-74
2021/05/19 03:27:13;;;;;;;6.70;6.10;;;;;;;8.01;76.68;98842.34;5110130;27;41417;-75
2021/05/19 03:29:40;;;;;;;8.17;6.27;;;;;;;8.00;77.44;98840.63;5109373;28;42698;-75
2021/05/19 03:32:07;;;;;;;5.20;4.80;;;;;;;7.91;76.80;98826.13;5108457;28;41977;-74
2021/05/19 03:34:35;;;;;;;5.70;5.00;;;;;;;8.04;77.36;98857.13;5109132;28;40216;-76
2021/05/19 03:37:03;;;;;;;6.77;5.50;;;;;;;8.04;77.82;98857.97;5091841;28;42024;-76
2021/05/19 03:39:30;;;;;;;6.23;5.30;;;;;;;7.92;77.25;98840.16;5109155;28;42547;-74
2021/05/19 03:41:57;;;;;;;6.20;4.87;;;;;;;7.99;77.47;98852.13;5108263;28;42410;-75
2021/05/19 03:44:24;;;;;;;5.90;5.40;;;;;;;8.09;76.90;98869.16;5108407;28;40810;-75
2021/05/19 03:46:53;;;;;;;4.97;4.47;;;;;;;7.97;76.61;98853.97;5109953;27;41457;-75
2021/05/19 03:49:21;;;;;;;4.07;3.77;;;;;;;8.04;76.53;98865.91;5108104;28;43305;-74
2021/05/19 03:51:49;;;;;;;4.90;4.40;;;;;;;8.14;76.39;98882.97;5108774;28;41099;-76
2021/05/19 03:54:17;;;;;;;5.20;4.60;;;;;;;8.14;76.20;98882.13;5109685;27;39035;-75
2021/05/19 03:56:44;;;;;;;4.60;4.20;;;;;;;8.11;75.83;98871.72;5091919;28;40961;-75
2021/05/19 03:59:11;;;;;;;5.77;4.87;;;;;;;8.13;76.14;98870.72;5108475;28;42621;-75
2021/05/19 04:01:38;;;;;;;6.27;5.73;;;;;;;8.19;75.99;98885.34;5107995;27;42333;-75
2021/05/19 04:04:05;;;;;;;5.27;4.77;;;;;;;8.14;76.07;98866.28;5091070;28;39041;-75
2021/05/19 04:06:33;;;;;;;6.10;5.40;;;;;;;8.27;75.74;98886.69;5107504;28;41410;-75
2021/05/19 04:09:01;;;;;;;6.73;5.97;;;;;;;8.32;75.69;98886.44;5107243;28;43339;-75
2021/05/19 04:11:28;;;;;;;5.47;4.93;;;;;;;8.39;75.46;98893.13;5091951;28;42484;-76
2021/05/19 04:13:55;;;;;;;5.83;5.23;;;;;;;8.45;75.85;98902.47;5109658;27;39376;-75
2021/05/19 04:16:22;;;;;;;5.57;5.07;;;;;;;8.40;75.78;98873.72;5108584;28;42507;-74
2021/05/19 04:18:49;;;;;;;6.67;5.87;;;;;;;8.60;75.55;98906.94;5109060;27;42651;-75
2021/05/19 04:21:16;;;;;;;6.87;6.17;;;;;;;8.69;75.81;98906.44;5108094;28;41943;-74
2021/05/19 04:23:45;;;;;;;7.07;6.37;;;;;;;8.74;75.67;98909.72;5091208;28;38818;-75
2021/05/19 04:26:13;;;;;;;5.73;5.17;;;;;;;8.70;75.21;98897.59;5107662;28;41329;-75
2021/05/19 04:28:40;;;;;;;6.33;5.13;;;;;;;8.77;75.21;98908.69;5108289;28;42633;-75
2021/05/19 04:31:07;;;;;;;6.07;5.57;;;;;;;8.95;75.04;98924.38;5108593;27;42141;-74
2021/05/19 04:33:34;;;;;;;5.53;5.07;;;;;;;9.03;74.83;98923.94;5109986;27;40997;-75
2021/05/19 04:36:10;;;;;;;6.13;5.53;;;;;;;9.05;74.62;98911.50;5107569;28;42511;-76
2021/05/19 04:38:38;;;;;;;5.10;4.70;;;;;;;9.18;74.44;98924.88;5091689;28;41699;-76
2021/05/19 04:41:05;;;;;;;7.20;5.57;;;;;;;9.28;74.04;98928.72;5089425;28;44274;-76
2021/05/19 04:43:33;;;;;;;5.03;4.63;;;;;;;9.36;73.84;98929.16;5125592;27;38981;-75
2021/05/19 04:46:01;;;;;;;5.27;4.77;;;;;;;9.45;73.77;98936.56;5108057;27;41312;-76
2021/05/19 04:48:29;;;;;;;6.03;4.93;;;;;;;9.54;73.78;98940.47;5109283;27;43517;-75
2021/05/19 04:50:56;;;;;;;5.10;4.60;;;;;;;9.63;73.38;98940.81;5107504;28;42222;-75
2021/05/19 04:53:24;;;;;;;6.13;5.60;;;;;;;9.67;73.51;98933.53;5108911;27;39980;-78
2021/05/19 04:55:56;;;;;;;6.60;6.00;;;;;;;9.82;73.71;98942.38;5107422;28;41773;-76
2021/05/19 04:58:26;;;;;;;7.10;6.47;;;;;;;9.88;73.67;98936.75;5107515;28;42568;-75
2021/05/19 05:00:55;;;;;;;6.60;5.73;;;;;;;9.98;73.30;98943.19;5108683;27;42511;-75
2021/05/19 05:03:22;;;;;;;6.07;5.50;;;;;;;10.13;73.27;98958.19;5107685;28;40023;-75
2021/05/19 05:05:51;;;;;;;5.20;4.70;;;;;;;10.22;72.86;98951.50;5107855;27;42364;-74
2021/05/19 05:08:18;;;;;;;5.97;5.37;;;;;;;10.27;72.75;98949.44;5109063;27;42819;-75
2021/05/19 05:10:45;;;;;;;5.47;4.97;;;;;;;10.43;72.61;98960.81;5106693;28;42456;-74
2021/05/19 05:13:13;;;;;;;6.70;6.07;;;;;;;10.51;72.32;98963.00;5110447;27;40607;-75
2021/05/19 05:15:40;;;;;;;5.93;5.33;;;;;;;10.50;72.26;98937.47;5111034;28;41565;-76
2021/05/19 05:18:08;;;;;;;6.77;6.03;;;;;;;10.71;72.12;98962.63;5094773;28;41955;-74
2021/05/19 05:20:35;;;;;;;6.40;5.80;;;;;;;10.80;71.79;98959.41;5110391;28;42179;-75
2021/05/19 05:23:02;;;;;;;6.57;5.60;;;;;;;10.90;71.56;98955.25;5112217;27;40916;-74
2021/05/19 05:25:31;;;;;;;6.07;5.47;;;;;;;10.98;71.23;98960.09;5111904;27;42282;-75
2021/05/19 05:27:58;;;;;;;6.27;5.70;;;;;;;11.08;71.27;98963.84;5094032;28;42322;-75
2021/05/19 05:30:25;;;;;;;5.30;4.80;;;;;;;11.15;70.59;98963.38;5110518;28;42697;-75
2021/05/19 05:32:52;;;;;;;6.17;5.33;;;;;;;11.25;70.27;98968.94;5110630;28;39709;-76
2021/05/19 05:35:20;;;;;;;5.73;5.23;;;;;;;11.32;70.27;98961.44;5112671;27;41659;-76
2021/05/19 05:37:48;;;;;;;6.40;5.80;;;;;;;11.48;70.27;98967.47;5110819;28;42696;-76
2021/05/19 05:40:15;;;;;;;5.10;4.50;;;;;;;11.59;70.06;98969.44;5144057;27;42707;-76
2021/05/19 05:42:42;;;;;;;6.73;5.87;;;;;;;11.67;69.47;98961.81;5111207;28;40388;-77
2021/05/19 05:45:11;;;;;;;6.03;5.43;;;;;;;11.76;68.79;98970.06;5109285;28;41472;-76
2021/05/19 05:47:38;;;;;;;5.70;5.30;;;;;;;11.82;69.09;98951.09;5110605;28;43440;-77
2021/05/19 05:50:06;;;;;;;5.73;4.80;;;;;;;12.02;68.62;98967.50;5093133;28;42095;-77
2021/05/19 05:52:34;;;;;;;5.17;4.27;;;;;;;12.12;68.40;98968.56;5081586;28;38911;-77
2021/05/19 05:55:01;;;;;;;5.60;5.10;;;;;;;12.21;68.01;98965.31;5109315;27;41491;-75
2021/05/19 05:57:28;;;;;;;4.93;4.43;;;;;;;12.35;67.63;98972.34;5107432;28;42497;-77
2021/05/19 05:59:55;;;;;;;6.43;5.83;;;;;;;12.47;66.86;98975.03;5108154;28;42539;-75
2021/05/19 06:02:23;;;;;;;6.17;5.50;;;;;;;12.61;66.74;98973.25;5108626;27;40662;-76
2021/05/19 06:04:50;;;;;;;5.33;4.90;;;;;;;12.76;66.58;98975.66;5107181;28;41271;-74
2021/05/19 06:07:17;;;;;;;7.27;5.60;;;;;;;12.87;66.18;98966.94;5108606;28;42016;-74
2021/05/19 06:09:51;;;;;;;5.60;5.00;;;;;;;13.02;66.13;98973.84;5110445;27;42258;-78
2021/05/19 06:12:18;;;;;;;6.67;6.17;;;;;;;13.25;64.54;98983.72;5109384;28;40974;-76
2021/05/19 06:14:46;;;;;;;5.33;4.83;;;;;;;13.62;64.30;98976.59;5106799;28;41197;-75
2021/05/19 06:17:14;;;;;;;5.10;4.60;;;;;;;13.84;63.87;98981.22;5108680;28;42625;-76
2021/05/19 06:19:41;;;;;;;5.63;5.13;;;;;;;14.01;63.83;98978.13;5110690;27;42389;-75
2021/05/19 06:22:09;;;;;;;4.77;4.27;;;;;;;14.17;62.55;98984.97;5109540;27;39744;-74
2021/05/19 06:24:36;;;;;;;5.30;4.77;;;;;;;14.49;61.37;98994.06;5087838;28;40617;-72
2021/05/19 06:27:05;;;;;;;5.43;5.03;;;;;;;14.92;61.15;98988.09;5087514;28;41931;-75
2021/05/19 06:29:32;;;;;;;4.67;4.27;;;;;;;15.48;59.70;98988.09;5123094;27;42507;-75
2021/05/19 06:31:59;;;;;;;15.47;13.53;;;;;;;15.97;56.87;99001.84;5090330;28;39302;-75
2021/05/19 06:34:26;;;;;;;5.80;5.30;;;;;;;16.43;56.29;98998.03;5109766;28;41570;-76
2021/05/19 06:36:54;;;;;;;4.97;4.57;;;;;;;16.83;55.21;99011.56;5108681;28;43461;-75
2021/05/19 06:39:22;;;;;;;4.80;4.40;;;;;;;17.12;53.53;99015.25;5109128;28;41105;-75
2021/05/19 06:41:50;;;;;;;5.10;4.40;;;;;;;17.31;53.76;99005.63;5092385;28;39348;-74
2021/05/19 06:44:20;;;;;;;5.00;4.30;;;;;;;17.66;52.45;99015.94;5108640;28;42441;-74
2021/05/19 06:46:47;;;;;;;3.77;3.27;;;;;;;18.04;52.17;99009.81;5110291;27;43422;-74
2021/05/19 06:49:15;;;;;;;5.83;3.53;;;;;;;18.40;51.37;99016.31;5109039;27;42917;-75
2021/05/19 06:51:42;;;;;;;4.20;3.80;;;;;;;18.96;50.15;99024.47;5109352;28;39914;-75
2021/05/19 06:54:10;;;;;;;3.90;3.37;;;;;;;19.31;49.03;99023.78;5108490;27;41718;-74
2021/05/19 06:56:42;;;;;;;3.50;3.20;;;;;;;19.55;48.87;99024.16;5110174;27;41617;-73
2021/05/19 06:59:10;;;;;;;2.93;2.37;;;;;;;19.69;48.39;99029.03;5109196;27;42243;-73
2021/05/19 07:01:38;;;;;;;3.13;2.83;;;;;;;19.81;47.86;99028.81;5107687;28;40794;-73
2021/05/19 07:04:05;;;;;;;4.23;3.17;;;;;;;19.64;47.28;99025.97;5108574;27;42350;-75
2021/05/19 07:06:33;;;;;;;4.30;3.30;;;;;;;19.73;46.63;99041.19;5108296;28;43506;-74
2021/05/19 07:09:00;;;;;;;3.93;3.27;;;;;;;19.82;45.90;99028.69;5107629;28;42009;-74
2021/05/19 07:11:27;;;;;;;4.03;3.70;;;;;;;19.89;45.04;99050.44;5110311;27;39845;-73
2021/05/19 07:13:56;;;;;;;2.57;2.37;;;;;;;19.78;46.17;99047.97;5090496;28;40812;-73
2021/05/19 07:16:25;;;;;;;3.90;3.63;;;;;;;19.54;46.06;99032.34;5125375;27;41958;-73
2021/05/19 07:18:55;;;;;;;4.00;3.60;;;;;;;19.39;46.74;99031.97;5107470;28;42825;-74
2021/05/19 07:21:23;;;;;;;3.13;2.83;;;;;;;19.34;46.87;99034.25;5108395;28;40811;-75
2021/05/19 07:23:51;;;;;;;3.77;3.47;;;;;;;19.27;46.98;99030.47;5108300;27;42463;-73
2021/05/19 07:26:20;;;;;;;2.97;2.60;;;;;;;19.44;47.41;99029.69;5109630;27;43445;-73
2021/05/19 07:28:47;;;;;;;3.60;3.30;;;;;;;19.28;46.97;99018.72;5107297;28;42649;-73
2021/05/19 07:31:14;;;;;;;2.83;2.50;;;;;;;19.20;47.30;98972.97;5109280;27;41776;-74
2021/05/19 07:33:41;;;;;;;3.83;3.53;;;;;;;20.00;46.03;99032.25;5109101;27;42457;-74
2021/05/19 07:36:09;;;;;;;6.33;3.80;;;;;;;20.13;45.74;99026.53;5106886;28;43847;-74
2021/05/19 07:38:36;;;;;;;3.93;3.53;;;;;;;20.12;44.60;99046.34;5108410;28;41410;-75
2021/05/19 07:41:04;;;;;;;4.63;4.33;;;;;;;20.02;45.38;99048.25;5107837;28;40338;-74
2021/05/19 07:43:31;;;;;;;4.53;4.07;;;;;;;20.32;44.69;99041.66;5126158;27;41802;-75
2021/05/19 07:45:58;;;;;;;4.97;4.17;;;;;;;21.43;42.55;99054.53;5109821;27;42568;-75
2021/05/19 07:48:25;;;;;;;5.57;3.33;;;;;;;22.78;41.08;99052.63;5108171;28;42079;-75
2021/05/19 07:50:52;;;;;;;3.40;3.20;;;;;;;23.95;38.50;99075.41;5109859;27;41084;-74
2021/05/19 07:53:20;;;;;;;3.60;3.30;;;;;;;24.79;35.69;99084.59;5111185;27;41777;-75
2021/05/19 07:55:50;;;;;;;3.93;3.60;;;;;;;24.86;36.45;99085.53;5110417;28;42767;-75
2021/05/19 07:58:20;;;;;;;4.37;3.37;;;;;;;25.38;35.34;99093.75;5110379;27;41575;-76
2021/05/19 08:01:00;;;;;;;3.90;3.47;;;;;;;25.41;35.39;99090.69;5109137;27;40644;-75
2021/05/19 08:03:29;;;;;;;3.27;3.00;;;;;;;24.97;36.56;99071.59;5102133;28;42313;-75
2021/05/19 08:05:57;;;;;;;5.27;3.93;;;;;;;24.94;36.68;99071.13;5108753;27;42689;-74
2021/05/19 08:08:25;;;;;;;4.10;3.80;;;;;;;24.80;35.58;99074.59;5107449;28;42890;-77
2021/05/19 08:10:53;;;;;;;5.73;4.97;;;;;;;24.51;36.69;99073.44;5106434;28;38726;-77
2021/05/19 08:13:20;;;;;;;10.83;9.70;;;;;;;24.43;37.33;99062.66;5108543;27;42265;-76
2021/05/19 08:15:47;;;;;;;5.17;4.77;;;;;;;24.42;37.41;99063.69;5108725;27;43560;-75
2021/05/19 08:18:17;;;;;;;4.17;3.77;;;;;;;24.45;36.73;99060.63;5108226;27;42426;-75
2021/05/19 08:20:44;;;;;;;5.27;4.87;;;;;;;24.83;36.70;99053.41;5108669;27;39834;-76
2021/05/19 08:23:11;;;;;;;4.50;4.10;;;;;;;25.66;35.23;99066.03;5090922;28;40768;-75
2021/05/19 08:25:39;;;;;;;4.23;3.83;;;;;;;25.18;35.86;99067.34;5107647;28;42520;-75
2021/05/19 08:28:06;;;;;;;5.80;4.20;;;;;;;24.43;37.24;99051.84;5107254;28;42247;-75
2021/05/19 08:30:38;;;;;;;4.60;4.13;;;;;;;23.75;37.89;99049.78;5108612;27;40402;-75
2021/05/19 08:33:06;;;;;;;4.63;4.27;;;;;;;23.31;38.81;99043.97;5088957;28;40393;-74
2021/05/19 08:35:33;;;;;;;5.50;5.00;;;;;;;23.14;39.25;99037.75;5108633;27;42602;-74
2021/05/19 08:38:00;;;;;;;4.83;4.33;;;;;;;23.74;39.52;99023.75;5107218;27;42033;-74
2021/05/19 08:40:28;;;;;;;5.47;4.97;;;;;;;24.98;36.99;99038.03;5108363;27;40534;-74
2021/05/19 08:42:56;;;;;;;5.37;4.97;;;;;;;25.60;35.50;99061.31;5106611;28;41491;-75
2021/05/19 08:45:23;;;;;;;5.37;3.90;;;;;;;25.47;35.44;99056.53;5089884;28;41968;-75
2021/05/19 08:47:59;;;;;;;4.83;4.03;;;;;;;25.36;35.92;99057.84;5107917;27;41879;-76
2021/05/19 08:50:27;;;;;;;5.67;4.67;;;;;;;25.30;35.90;99058.59;5110451;28;39940;-76
2021/05/19 08:52:56;;;;;;;5.83;5.23;;;;;;;25.18;35.24;99059.22;5110536;28;42285;-76
2021/05/19 08:55:24;;;;;;;5.07;4.67;;;;;;;25.26;35.45;99054.56;5110697;28;42487;-76
2021/05/19 08:57:51;;;;;;;5.30;4.80;;;;;;;25.21;34.96;99059.72;5111142;27;41822;-75
2021/05/19 09:00:21;;;;;;;5.80;5.30;;;;;;;25.32;34.70;99063.84;5112318;27;40322;-76
2021/05/19 09:03:04;;;;;;;4.67;4.23;;;;;;;25.44;34.77;99056.94;5110288;28;41271;-77
2021/05/19 09:05:32;;;;;;;5.37;4.47;;;;;;;25.52;34.32;99054.13;5110433;28;42626;-78
2021/05/19 09:08:06;;;;;;;6.07;5.10;;;;;;;25.82;34.74;99055.00;5109625;28;42667;-75
2021/05/19 09:10:34;;;;;;;6.07;5.57;;;;;;;25.90;34.66;99057.59;5111512;27;40663;-77
2021/05/19 09:13:01;;;;;;;5.63;4.57;;;;;;;26.22;34.02;99061.75;5110759;28;41302;-77
2021/05/19 09:15:47;;;;;;;6.07;4.80;;;;;;;26.41;33.56;99058.47;5111748;27;42406;-74
2021/05/19 09:18:15;;;;;;;5.13;4.63;;;;;;;26.50;33.63;99051.03;5110871;27;42220;-77
2021/05/19 09:20:43;;;;;;;4.40;4.00;;;;;;;26.13;33.98;99065.63;5111163;28;39776;-76
2021/05/19 09:23:16;;;;;;;4.97;4.57;;;;;;;25.68;34.24;99061.28;5111127;27;41774;-77
2021/05/19 09:25:43;;;;;;;5.63;5.13;;;;;;;25.00;34.89;99049.53;5110063;28;42656;-77
2021/05/19 09:28:23;;;;;;;8.97;8.07;;;;;;;24.32;36.54;99019.75;5109182;28;42037;-77
2021/05/19 09:30:51;;;;;;;4.97;4.47;;;;;;;23.87;38.18;99015.91;5109748;28;41649;-76
2021/05/19 09:33:22;;;;;;;5.47;4.93;;;;;;;23.44;39.57;99016.41;5110509;27;41867;-77
2021/05/19 09:36:14;;;;;;;4.30;3.90;;;;;;;23.45;40.11;99010.00;5093382;28;42802;-77
2021/05/19 09:38:42;;;;;;;4.03;3.63;;;;;;;23.34;40.43;99015.78;5110875;28;43045;-77
2021/05/19 09:41:23;;;;;;;4.77;3.60;;;;;;;22.95;40.74;99013.81;5109417;28;40375;-78
2021/05/19 09:43:54;;;;;;;4.10;3.80;;;;;;;22.56;41.37;99009.06;5109867;28;41450;-74
2021/05/19 09:46:27;;;;;;;4.43;3.77;;;;;;;22.43;41.46;99005.19;5109841;28;42651;-75
2021/05/19 09:49:16;;;;;;;4.50;3.60;;;;;;;22.71;40.81;99001.16;5109019;28;42215;-75
2021/05/19 09:51:45;;;;;;;3.27;2.97;;;;;;;25.24;38.57;99017.81;5111429;27;40676;-76
2021/05/19 09:54:26;;;;;;;3.80;3.40;;;;;;;26.45;34.96;99034.50;5110693;27;41500;-80
2021/05/19 09:56:58;;;;;;;4.77;4.20;;;;;;;27.34;33.04;99057.44;5110104;27;42646;-76
2021/05/19 09:59:26;;;;;;;3.60;3.20;;;;;;;26.94;32.99;99066.34;5109499;28;41294;-76
2021/05/19 10:01:57;;;;;;;3.80;3.40;;;;;;;26.18;34.43;99043.34;5110579;27;39786;-76
2021/05/19 10:04:27;;;;;;;3.47;3.17;;;;;;;25.46;35.67;99051.31;5110722;27;42091;-75
2021/05/19 10:06:56;;;;;;;4.17;3.87;;;;;;;25.09;35.73;99042.22;5088444;28;43008;-76
2021/05/19 10:09:25;;;;;;;3.63;3.33;;;;;;;24.79;36.44;99032.28;5090137;28;42696;-76
2021/05/19 10:11:53;;;;;;;4.20;3.80;;;;;;;24.58;37.04;99033.81;5090595;28;39037;-83
2021/05/19 10:14:22;;;;;;;5.87;3.80;;;;;;;25.10;36.27;99035.72;5110378;27;41636;-77
2021/05/19 10:16:53;;;;;;;3.80;3.33;;;;;;;25.29;36.60;99029.78;5110634;27;43506;-74
2021/05/19 10:19:27;;;;;;;4.70;4.30;;;;;;;25.12;36.46;99041.81;5110634;27;42282;-76
2021/05/19 10:21:58;;;;;;;4.17;3.87;;;;;;;25.07;36.28;99021.72;5109069;28;40605;-74
2021/05/19 10:24:46;;;;;;;3.50;3.20;;;;;;;25.44;37.82;99024.38;5109254;28;41694;-76
2021/05/19 10:27:15;;;;;;;3.57;3.27;;;;;;;25.28;36.64;99029.97;5109378;27;42717;-75
2021/05/19 10:29:57;;;;;;;4.13;3.73;;;;;;;24.61;36.22;99009.03;5110310;28;41121;-79
2021/05/19 10:32:32;;;;;;;3.03;2.73;;;;;;;24.32;37.04;99022.47;5110076;27;39572;-76
2021/05/19 10:35:03;;;;;;;4.57;4.17;;;;;;;24.12;35.83;99035.56;5108450;28;40505;-74
2021/05/19 10:37:50;;;;;;;3.67;3.10;;;;;;;24.17;36.67;99019.66;5109557;27;42672;-77
2021/05/19 10:40:35;;;;;;;5.87;4.40;;;;;;;23.93;36.44;99028.75;5110445;27;42064;-75
2021/05/19 10:43:04;;;;;;;3.83;3.53;;;;;;;24.27;36.83;99014.03;5109794;27;39682;-77
2021/05/19 10:45:47;;;;;;;3.13;2.83;;;;;;;24.03;36.75;99017.69;5091719;28;41583;-77
2021/05/19 10:48:29;;;;;;;35.27;31.43;;;;;;;23.98;36.15;99012.81;5107943;28;43479;-77
2021/05/19 10:51:02;;;;;;;3.97;3.57;;;;;;;24.50;35.70;98998.63;5109427;27;42165;-77
2021/05/19 10:59:14;;;;;;;3.20;2.37;;;;;;;24.66;34.99;99014.75;5095600;28;43243;-76
2021/05/19 11:01:56;;;;;;;2.73;2.40;;;;;;;24.20;35.86;99008.47;5108389;28;42285;-75
2021/05/19 11:04:24;;;;;;;3.50;2.53;;;;;;;23.46;37.43;98998.16;5109669;27;40716;-75
2021/05/19 11:07:06;;;;;;;4.07;2.60;;;;;;;22.68;38.71;98997.94;5090939;28;40875;-77
2021/05/19 11:09:35;;;;;;;4.30;1.50;;;;;;;21.77;40.36;98996.06;5089851;28;43392;-75
2021/05/19 11:12:38;;;;;;;1.57;1.40;;;;;;;20.67;43.49;98963.63;5087761;28;41837;-75
2021/05/19 11:15:48;;;;;;;2.07;1.40;;;;;;;19.79;45.68;98947.50;5109353;27;40632;-75
2021/05/19 11:18:22;;;;;;;2.93;1.10;;;;;;;19.28;46.84;98943.53;5090835;28;40970;-74
2021/05/19 11:20:50;;;;;;;1.73;1.63;;;;;;;19.10;47.24;98934.56;5109022;27;42430;-73
2021/05/19 11:23:19;;;;;;;1.90;1.80;;;;;;;19.05;48.74;98907.31;5108371;28;41199;-74
2021/05/19 11:25:47;;;;;;;2.00;1.80;;;;;;;19.36;48.86;98912.25;5108212;28;39493;-74
2021/05/19 11:28:23;;;;;;;3.00;2.37;;;;;;;20.06;46.93;98924.09;5107691;28;42572;-74
2021/05/19 11:30:50;;;;;;;2.83;2.37;;;;;;;21.01;49.22;98904.47;5108417;28;42638;-74
2021/05/19 11:33:26;;;;;;;2.70;2.50;;;;;;;22.00;44.89;98933.47;5109496;27;42722;-76
2021/05/19 11:35:53;;;;;;;3.00;2.40;;;;;;;22.65;44.76;98931.59;5106038;28;40086;-75
2021/05/19 11:38:21;;;;;;;4.40;2.40;;;;;;;23.96;44.64;98922.91;5106306;28;41685;-74
2021/05/19 11:40:51;;;;;;;3.63;2.63;;;;;;;25.56;38.56;98965.94;5108164;28;42722;-75
2021/05/19 11:43:21;;;;;;;2.47;1.90;;;;;;;27.74;35.70;98971.50;5108236;27;42265;-75
2021/05/19 11:45:56;;;;;;;2.20;2.00;;;;;;;28.88;32.08;98996.13;5119050;27;39300;-74
2021/05/19 11:48:25;;;;;;;2.03;1.80;;;;;;;28.06;33.09;98997.19;5087969;28;41614;-76
2021/05/19 11:50:53;;;;;;;2.50;1.80;;;;;;;27.05;33.09;98993.25;5087722;28;43190;-76
2021/05/19 11:53:21;;;;;;;1.70;1.60;;;;;;;26.54;34.43;98979.00;5100309;28;42285;-76
2021/05/19 11:55:50;;;;;;;2.57;1.73;;;;;;;26.18;33.68;98984.44;5106801;28;40747;-77